sensor_id;sensor_type;location;lat;lon;timestamp;P1;durP1;ratioP1;P2;durP2;ratioP2
61903;SDS011;47857;52.270;6.804;2023-10-31T00:01:13;41.13;;;28.33;;
61903;SDS011;47857;52.270;6.804;2023-10-31T00:03:39;43.78;;;29.00;;
61903;SDS011;47857;52.270;6.804;2023-10-31T00:06:05;41.70;;;27.67;;
61903;SDS011;47857;52.270;6.804;2023-10-31T00:08:31;36.80;;;27.13;;
61903;SDS011;47857;52.270;6.804;2023-10-31T00:10:57;40.70;;;28.02;;
61903;SDS011;47857;52.270;6.804;2023-10-31T00:13:22;39.83;;;27.80;;
61903;SDS011;47857;52.270;6.804;2023-10-31T00:15:48;34.80;;;24.30;;
61903;SDS011;47857;52.270;6.804;2023-10-31T00:18:13;36.25;;;24.92;;
61903;SDS011;47857;52.270;6.804;2023-10-31T00:20:40;33.97;;;23.60;;
61903;SDS011;47857;52.270;6.804;2023-10-31T00:23:05;39.40;;;25.30;;
61903;SDS011;47857;52.270;6.804;2023-10-31T00:25:31;36.38;;;24.48;;
61903;SDS011;47857;52.270;6.804;2023-10-31T00:27:56;37.45;;;23.40;;
61903;SDS011;47857;52.270;6.804;2023-10-31T00:30:22;35.80;;;23.55;;
61903;SDS011;47857;52.270;6.804;2023-10-31T00:32:47;34.90;;;22.92;;
61903;SDS011;47857;52.270;6.804;2023-10-31T00:35:13;38.25;;;24.35;;
61903;SDS011;47857;52.270;6.804;2023-10-31T00:37:38;39.55;;;24.50;;
61903;SDS011;47857;52.270;6.804;2023-10-31T00:40:07;36.53;;;23.23;;
61903;SDS011;47857;52.270;6.804;2023-10-31T00:42:36;29.67;;;20.52;;
61903;SDS011;47857;52.270;6.804;2023-10-31T00:45:07;30.42;;;21.67;;
61903;SDS011;47857;52.270;6.804;2023-10-31T00:47:33;27.58;;;20.40;;
61903;SDS011;47857;52.270;6.804;2023-10-31T00:49:59;29.48;;;20.95;;
61903;SDS011;47857;52.270;6.804;2023-10-31T00:52:24;30.10;;;20.67;;
61903;SDS011;47857;52.270;6.804;2023-10-31T00:54:50;30.58;;;20.80;;
61903;SDS011;47857;52.270;6.804;2023-10-31T00:57:15;28.33;;;20.85;;
61903;SDS011;47857;52.270;6.804;2023-10-31T00:59:41;27.70;;;20.02;;
61903;SDS011;47857;52.270;6.804;2023-10-31T01:02:07;30.42;;;20.23;;
61903;SDS011;47857;52.270;6.804;2023-10-31T01:04:32;24.67;;;18.83;;
61903;SDS011;47857;52.270;6.804;2023-10-31T01:06:58;26.92;;;19.55;;
61903;SDS011;47857;52.270;6.804;2023-10-31T01:09:23;27.27;;;19.80;;
61903;SDS011;47857;52.270;6.804;2023-10-31T01:11:49;26.08;;;19.50;;
61903;SDS011;47857;52.270;6.804;2023-10-31T01:14:14;23.67;;;18.13;;
61903;SDS011;47857;52.270;6.804;2023-10-31T01:16:40;22.45;;;16.83;;
61903;SDS011;47857;52.270;6.804;2023-10-31T01:19:06;22.25;;;16.05;;
61903;SDS011;47857;52.270;6.804;2023-10-31T01:21:32;19.58;;;13.68;;
61903;SDS011;47857;52.270;6.804;2023-10-31T01:23:58;10.30;;;7.80;;
61903;SDS011;47857;52.270;6.804;2023-10-31T01:26:24;9.20;;;6.75;;
61903;SDS011;47857;52.270;6.804;2023-10-31T01:28:50;5.82;;;3.92;;
61903;SDS011;47857;52.270;6.804;2023-10-31T01:31:15;3.00;;;2.20;;
61903;SDS011;47857;52.270;6.804;2023-10-31T01:33:41;3.35;;;1.38;;
61903;SDS011;47857;52.270;6.804;2023-10-31T01:36:06;2.35;;;0.80;;
61903;SDS011;47857;52.270;6.804;2023-10-31T01:38:32;1.88;;;0.88;;
61903;SDS011;47857;52.270;6.804;2023-10-31T01:40:58;2.88;;;0.88;;
61903;SDS011;47857;52.270;6.804;2023-10-31T01:43:33;2.42;;;0.73;;
61903;SDS011;47857;52.270;6.804;2023-10-31T01:45:59;2.08;;;0.90;;
61903;SDS011;47857;52.270;6.804;2023-10-31T01:48:25;2.08;;;0.65;;
61903;SDS011;47857;52.270;6.804;2023-10-31T01:50:52;1.50;;;0.70;;
61903;SDS011;47857;52.270;6.804;2023-10-31T01:53:17;3.50;;;0.77;;
61903;SDS011;47857;52.270;6.804;2023-10-31T01:55:44;1.65;;;0.60;;
61903;SDS011;47857;52.270;6.804;2023-10-31T01:58:10;2.90;;;0.70;;
61903;SDS011;47857;52.270;6.804;2023-10-31T02:00:37;1.35;;;0.52;;
61903;SDS011;47857;52.270;6.804;2023-10-31T02:03:06;2.97;;;0.70;;
61903;SDS011;47857;52.270;6.804;2023-10-31T02:05:33;4.40;;;0.50;;
61903;SDS011;47857;52.270;6.804;2023-10-31T02:07:59;2.25;;;0.70;;
61903;SDS011;47857;52.270;6.804;2023-10-31T02:10:28;2.50;;;0.40;;
61903;SDS011;47857;52.270;6.804;2023-10-31T02:12:53;4.05;;;0.60;;
61903;SDS011;47857;52.270;6.804;2023-10-31T02:15:19;2.78;;;0.60;;
61903;SDS011;47857;52.270;6.804;2023-10-31T02:17:44;1.75;;;0.40;;
61903;SDS011;47857;52.270;6.804;2023-10-31T02:20:10;4.18;;;0.63;;
61903;SDS011;47857;52.270;6.804;2023-10-31T02:22:36;5.43;;;0.70;;
61903;SDS011;47857;52.270;6.804;2023-10-31T02:25:02;2.95;;;0.75;;
61903;SDS011;47857;52.270;6.804;2023-10-31T02:27:27;6.43;;;0.68;;
61903;SDS011;47857;52.270;6.804;2023-10-31T02:29:53;5.20;;;0.90;;
61903;SDS011;47857;52.270;6.804;2023-10-31T02:32:18;3.35;;;0.90;;
61903;SDS011;47857;52.270;6.804;2023-10-31T02:34:44;2.97;;;0.73;;
61903;SDS011;47857;52.270;6.804;2023-10-31T02:37:10;3.05;;;0.70;;
61903;SDS011;47857;52.270;6.804;2023-10-31T02:39:36;5.85;;;1.55;;
61903;SDS011;47857;52.270;6.804;2023-10-31T02:42:03;5.72;;;1.10;;
61903;SDS011;47857;52.270;6.804;2023-10-31T02:44:28;4.30;;;1.10;;
61903;SDS011;47857;52.270;6.804;2023-10-31T02:46:54;4.55;;;1.30;;
61903;SDS011;47857;52.270;6.804;2023-10-31T02:49:20;5.95;;;1.27;;
61903;SDS011;47857;52.270;6.804;2023-10-31T02:51:46;7.85;;;1.48;;
61903;SDS011;47857;52.270;6.804;2023-10-31T02:54:12;6.70;;;1.73;;
61903;SDS011;47857;52.270;6.804;2023-10-31T02:56:38;5.18;;;1.60;;
61903;SDS011;47857;52.270;6.804;2023-10-31T02:59:04;6.00;;;1.50;;
61903;SDS011;47857;52.270;6.804;2023-10-31T03:01:29;5.13;;;1.63;;
61903;SDS011;47857;52.270;6.804;2023-10-31T03:03:55;8.13;;;2.00;;
61903;SDS011;47857;52.270;6.804;2023-10-31T03:06:21;6.50;;;1.92;;
61903;SDS011;47857;52.270;6.804;2023-10-31T03:08:46;7.10;;;2.08;;
61903;SDS011;47857;52.270;6.804;2023-10-31T03:11:22;7.68;;;2.30;;
61903;SDS011;47857;52.270;6.804;2023-10-31T03:13:49;9.45;;;2.72;;
61903;SDS011;47857;52.270;6.804;2023-10-31T03:16:15;8.82;;;2.95;;
61903;SDS011;47857;52.270;6.804;2023-10-31T03:18:40;10.15;;;3.28;;
61903;SDS011;47857;52.270;6.804;2023-10-31T03:21:06;9.75;;;4.03;;
61903;SDS011;47857;52.270;6.804;2023-10-31T03:23:31;7.55;;;4.75;;
61903;SDS011;47857;52.270;6.804;2023-10-31T03:25:57;10.82;;;5.45;;
61903;SDS011;47857;52.270;6.804;2023-10-31T03:28:22;11.48;;;5.60;;
61903;SDS011;47857;52.270;6.804;2023-10-31T03:30:49;15.15;;;7.07;;
61903;SDS011;47857;52.270;6.804;2023-10-31T03:33:15;14.50;;;7.65;;
61903;SDS011;47857;52.270;6.804;2023-10-31T03:35:42;15.18;;;8.45;;
61903;SDS011;47857;52.270;6.804;2023-10-31T03:38:08;13.82;;;8.63;;
61903;SDS011;47857;52.270;6.804;2023-10-31T03:40:33;16.90;;;10.18;;
61903;SDS011;47857;52.270;6.804;2023-10-31T03:42:59;16.73;;;10.48;;
61903;SDS011;47857;52.270;6.804;2023-10-31T03:45:24;17.95;;;10.60;;
61903;SDS011;47857;52.270;6.804;2023-10-31T03:47:50;16.83;;;11.02;;
61903;SDS011;47857;52.270;6.804;2023-10-31T03:50:15;19.63;;;11.32;;
61903;SDS011;47857;52.270;6.804;2023-10-31T03:52:41;17.30;;;11.52;;
61903;SDS011;47857;52.270;6.804;2023-10-31T03:55:07;16.90;;;10.90;;
61903;SDS011;47857;52.270;6.804;2023-10-31T03:57:33;16.15;;;10.77;;
61903;SDS011;47857;52.270;6.804;2023-10-31T03:59:58;17.27;;;11.18;;
61903;SDS011;47857;52.270;6.804;2023-10-31T04:02:24;16.45;;;11.60;;
61903;SDS011;47857;52.270;6.804;2023-10-31T04:04:50;19.10;;;11.60;;
61903;SDS011;47857;52.270;6.804;2023-10-31T04:07:15;17.50;;;11.43;;
61903;SDS011;47857;52.270;6.804;2023-10-31T04:09:41;20.08;;;11.35;;
61903;SDS011;47857;52.270;6.804;2023-10-31T04:12:06;17.55;;;11.02;;
61903;SDS011;47857;52.270;6.804;2023-10-31T04:14:32;16.85;;;10.88;;
61903;SDS011;47857;52.270;6.804;2023-10-31T04:16:58;16.75;;;10.40;;
61903;SDS011;47857;52.270;6.804;2023-10-31T04:19:23;17.70;;;10.10;;
61903;SDS011;47857;52.270;6.804;2023-10-31T04:21:49;16.20;;;10.18;;
61903;SDS011;47857;52.270;6.804;2023-10-31T04:24:14;13.95;;;9.20;;
61903;SDS011;47857;52.270;6.804;2023-10-31T04:26:40;16.08;;;9.52;;
61903;SDS011;47857;52.270;6.804;2023-10-31T04:29:06;11.35;;;7.53;;
61903;SDS011;47857;52.270;6.804;2023-10-31T04:31:31;9.38;;;6.50;;
61903;SDS011;47857;52.270;6.804;2023-10-31T04:33:57;11.77;;;6.53;;
61903;SDS011;47857;52.270;6.804;2023-10-31T04:36:22;8.23;;;5.25;;
61903;SDS011;47857;52.270;6.804;2023-10-31T04:38:48;8.23;;;4.72;;
61903;SDS011;47857;52.270;6.804;2023-10-31T04:41:14;7.13;;;3.95;;
61903;SDS011;47857;52.270;6.804;2023-10-31T04:43:39;7.43;;;3.75;;
61903;SDS011;47857;52.270;6.804;2023-10-31T04:46:07;5.20;;;3.22;;
61903;SDS011;47857;52.270;6.804;2023-10-31T04:48:32;5.53;;;2.90;;
61903;SDS011;47857;52.270;6.804;2023-10-31T04:50:58;4.97;;;2.80;;
61903;SDS011;47857;52.270;6.804;2023-10-31T04:53:24;5.72;;;2.30;;
61903;SDS011;47857;52.270;6.804;2023-10-31T04:55:49;4.45;;;2.63;;
61903;SDS011;47857;52.270;6.804;2023-10-31T04:58:15;5.03;;;2.20;;
61903;SDS011;47857;52.270;6.804;2023-10-31T05:00:40;4.50;;;2.30;;
61903;SDS011;47857;52.270;6.804;2023-10-31T05:03:06;3.80;;;2.00;;
61903;SDS011;47857;52.270;6.804;2023-10-31T05:05:32;4.00;;;2.53;;
61903;SDS011;47857;52.270;6.804;2023-10-31T05:07:57;4.20;;;2.40;;
61903;SDS011;47857;52.270;6.804;2023-10-31T05:10:23;3.75;;;2.90;;
61903;SDS011;47857;52.270;6.804;2023-10-31T05:12:49;5.35;;;3.17;;
61903;SDS011;47857;52.270;6.804;2023-10-31T05:15:16;8.88;;;3.47;;
61903;SDS011;47857;52.270;6.804;2023-10-31T05:17:41;5.32;;;3.78;;
61903;SDS011;47857;52.270;6.804;2023-10-31T05:20:07;7.60;;;4.22;;
61903;SDS011;47857;52.270;6.804;2023-10-31T05:22:34;6.32;;;4.18;;
61903;SDS011;47857;52.270;6.804;2023-10-31T05:25:00;10.38;;;7.05;;
61903;SDS011;47857;52.270;6.804;2023-10-31T05:27:26;7.20;;;5.55;;
61903;SDS011;47857;52.270;6.804;2023-10-31T05:29:51;6.95;;;5.63;;
61903;SDS011;47857;52.270;6.804;2023-10-31T05:32:17;8.30;;;6.25;;
61903;SDS011;47857;52.270;6.804;2023-10-31T05:34:42;11.02;;;6.50;;
61903;SDS011;47857;52.270;6.804;2023-10-31T05:37:08;11.10;;;6.93;;
61903;SDS011;47857;52.270;6.804;2023-10-31T05:39:33;11.10;;;6.78;;
61903;SDS011;47857;52.270;6.804;2023-10-31T05:42:01;7.50;;;5.70;;
61903;SDS011;47857;52.270;6.804;2023-10-31T05:44:27;9.23;;;7.07;;
61903;SDS011;47857;52.270;6.804;2023-10-31T05:46:53;9.48;;;6.70;;
61903;SDS011;47857;52.270;6.804;2023-10-31T05:49:19;9.40;;;6.55;;
61903;SDS011;47857;52.270;6.804;2023-10-31T05:51:49;10.43;;;7.55;;
61903;SDS011;47857;52.270;6.804;2023-10-31T05:54:17;9.55;;;7.10;;
61903;SDS011;47857;52.270;6.804;2023-10-31T05:56:43;10.85;;;7.18;;
61903;SDS011;47857;52.270;6.804;2023-10-31T05:59:10;10.93;;;7.18;;
61903;SDS011;47857;52.270;6.804;2023-10-31T06:01:36;10.68;;;7.45;;
61903;SDS011;47857;52.270;6.804;2023-10-31T06:04:02;10.90;;;7.47;;
61903;SDS011;47857;52.270;6.804;2023-10-31T06:06:28;13.00;;;7.38;;
61903;SDS011;47857;52.270;6.804;2023-10-31T06:08:54;11.15;;;7.40;;
61903;SDS011;47857;52.270;6.804;2023-10-31T06:11:20;10.57;;;7.30;;
61903;SDS011;47857;52.270;6.804;2023-10-31T06:13:45;9.60;;;7.65;;
61903;SDS011;47857;52.270;6.804;2023-10-31T06:16:13;9.85;;;6.80;;
61903;SDS011;47857;52.270;6.804;2023-10-31T06:18:38;9.98;;;7.00;;
61903;SDS011;47857;52.270;6.804;2023-10-31T06:21:05;11.48;;;6.82;;
61903;SDS011;47857;52.270;6.804;2023-10-31T06:23:30;10.65;;;6.38;;
61903;SDS011;47857;52.270;6.804;2023-10-31T06:25:56;8.23;;;5.78;;
61903;SDS011;47857;52.270;6.804;2023-10-31T06:28:22;9.68;;;5.88;;
61903;SDS011;47857;52.270;6.804;2023-10-31T06:30:48;7.32;;;5.30;;
61903;SDS011;47857;52.270;6.804;2023-10-31T06:33:14;8.73;;;5.60;;
61903;SDS011;47857;52.270;6.804;2023-10-31T06:35:39;11.07;;;5.10;;
61903;SDS011;47857;52.270;6.804;2023-10-31T06:38:05;7.07;;;4.88;;
61903;SDS011;47857;52.270;6.804;2023-10-31T06:40:30;9.32;;;5.07;;
61903;SDS011;47857;52.270;6.804;2023-10-31T06:42:56;7.15;;;4.55;;
61903;SDS011;47857;52.270;6.804;2023-10-31T06:45:21;7.50;;;4.07;;
61903;SDS011;47857;52.270;6.804;2023-10-31T06:47:47;7.95;;;4.53;;
61903;SDS011;47857;52.270;6.804;2023-10-31T06:50:12;7.70;;;4.43;;
61903;SDS011;47857;52.270;6.804;2023-10-31T06:52:38;7.03;;;4.40;;
61903;SDS011;47857;52.270;6.804;2023-10-31T06:55:03;5.28;;;4.18;;
61903;SDS011;47857;52.270;6.804;2023-10-31T06:57:29;8.02;;;4.38;;
61903;SDS011;47857;52.270;6.804;2023-10-31T06:59:55;8.27;;;4.03;;
61903;SDS011;47857;52.270;6.804;2023-10-31T07:02:20;10.93;;;4.72;;
61903;SDS011;47857;52.270;6.804;2023-10-31T07:04:46;6.22;;;4.00;;
61903;SDS011;47857;52.270;6.804;2023-10-31T07:07:12;6.97;;;3.75;;
61903;SDS011;47857;52.270;6.804;2023-10-31T07:09:37;8.13;;;3.80;;
61903;SDS011;47857;52.270;6.804;2023-10-31T07:12:03;4.45;;;3.20;;
61903;SDS011;47857;52.270;6.804;2023-10-31T07:14:28;5.63;;;3.63;;
61903;SDS011;47857;52.270;6.804;2023-10-31T07:16:55;6.95;;;3.50;;
61903;SDS011;47857;52.270;6.804;2023-10-31T07:19:21;6.32;;;3.65;;
61903;SDS011;47857;52.270;6.804;2023-10-31T07:21:47;6.90;;;3.28;;
61903;SDS011;47857;52.270;6.804;2023-10-31T07:24:12;7.20;;;3.40;;
61903;SDS011;47857;52.270;6.804;2023-10-31T07:26:38;7.35;;;3.45;;
61903;SDS011;47857;52.270;6.804;2023-10-31T07:29:03;5.53;;;3.40;;
61903;SDS011;47857;52.270;6.804;2023-10-31T07:31:29;6.55;;;3.55;;
61903;SDS011;47857;52.270;6.804;2023-10-31T07:33:54;6.00;;;3.30;;
61903;SDS011;47857;52.270;6.804;2023-10-31T07:36:21;7.03;;;3.30;;
61903;SDS011;47857;52.270;6.804;2023-10-31T07:38:47;5.22;;;2.78;;
61903;SDS011;47857;52.270;6.804;2023-10-31T07:41:13;6.35;;;3.42;;
61903;SDS011;47857;52.270;6.804;2023-10-31T07:43:38;7.22;;;3.15;;
61903;SDS011;47857;52.270;6.804;2023-10-31T07:46:04;4.65;;;3.00;;
61903;SDS011;47857;52.270;6.804;2023-10-31T07:48:30;5.40;;;3.00;;
61903;SDS011;47857;52.270;6.804;2023-10-31T07:50:56;6.00;;;3.17;;
61903;SDS011;47857;52.270;6.804;2023-10-31T07:53:22;6.47;;;3.65;;
61903;SDS011;47857;52.270;6.804;2023-10-31T07:55:48;8.43;;;3.70;;
61903;SDS011;47857;52.270;6.804;2023-10-31T07:58:13;7.35;;;3.60;;
61903;SDS011;47857;52.270;6.804;2023-10-31T08:00:39;7.95;;;3.72;;
61903;SDS011;47857;52.270;6.804;2023-10-31T08:03:05;8.48;;;4.00;;
61903;SDS011;47857;52.270;6.804;2023-10-31T08:05:31;7.03;;;3.97;;
61903;SDS011;47857;52.270;6.804;2023-10-31T08:07:57;5.93;;;3.33;;
61903;SDS011;47857;52.270;6.804;2023-10-31T08:10:23;6.47;;;3.58;;
61903;SDS011;47857;52.270;6.804;2023-10-31T08:12:48;7.13;;;3.40;;
61903;SDS011;47857;52.270;6.804;2023-10-31T08:15:14;6.55;;;3.65;;
61903;SDS011;47857;52.270;6.804;2023-10-31T08:17:41;8.30;;;3.58;;
61903;SDS011;47857;52.270;6.804;2023-10-31T08:20:06;6.63;;;3.58;;
61903;SDS011;47857;52.270;6.804;2023-10-31T08:22:32;5.93;;;3.65;;
61903;SDS011;47857;52.270;6.804;2023-10-31T08:24:58;7.85;;;3.55;;
61903;SDS011;47857;52.270;6.804;2023-10-31T08:27:24;5.25;;;3.15;;
61903;SDS011;47857;52.270;6.804;2023-10-31T08:29:49;5.70;;;3.30;;
61903;SDS011;47857;52.270;6.804;2023-10-31T08:32:15;7.68;;;3.20;;
61903;SDS011;47857;52.270;6.804;2023-10-31T08:34:41;9.57;;;3.47;;
61903;SDS011;47857;52.270;6.804;2023-10-31T08:37:06;7.80;;;3.80;;
61903;SDS011;47857;52.270;6.804;2023-10-31T08:39:32;7.35;;;3.13;;
61903;SDS011;47857;52.270;6.804;2023-10-31T08:41:57;7.35;;;3.50;;
61903;SDS011;47857;52.270;6.804;2023-10-31T08:44:23;12.65;;;7.57;;
61903;SDS011;47857;52.270;6.804;2023-10-31T08:46:49;12.05;;;5.13;;
61903;SDS011;47857;52.270;6.804;2023-10-31T08:49:15;8.43;;;4.47;;
61903;SDS011;47857;52.270;6.804;2023-10-31T08:51:41;9.85;;;3.28;;
61903;SDS011;47857;52.270;6.804;2023-10-31T08:54:07;6.55;;;3.10;;
61903;SDS011;47857;52.270;6.804;2023-10-31T08:56:34;7.88;;;3.33;;
61903;SDS011;47857;52.270;6.804;2023-10-31T08:58:59;6.47;;;3.10;;
61903;SDS011;47857;52.270;6.804;2023-10-31T09:01:26;6.75;;;3.33;;
61903;SDS011;47857;52.270;6.804;2023-10-31T09:03:51;5.28;;;3.10;;
61903;SDS011;47857;52.270;6.804;2023-10-31T09:06:17;6.43;;;3.20;;
61903;SDS011;47857;52.270;6.804;2023-10-31T09:08:43;8.30;;;3.53;;
61903;SDS011;47857;52.270;6.804;2023-10-31T09:11:08;6.25;;;3.15;;
61903;SDS011;47857;52.270;6.804;2023-10-31T09:13:34;6.30;;;3.28;;
61903;SDS011;47857;52.270;6.804;2023-10-31T09:15:59;5.80;;;3.00;;
61903;SDS011;47857;52.270;6.804;2023-10-31T09:18:25;6.43;;;3.28;;
61903;SDS011;47857;52.270;6.804;2023-10-31T09:20:51;5.45;;;2.92;;
61903;SDS011;47857;52.270;6.804;2023-10-31T09:23:17;5.07;;;2.85;;
61903;SDS011;47857;52.270;6.804;2023-10-31T09:25:43;5.55;;;2.97;;
61903;SDS011;47857;52.270;6.804;2023-10-31T09:28:08;8.13;;;2.70;;
61903;SDS011;47857;52.270;6.804;2023-10-31T09:30:34;7.82;;;3.25;;
61903;SDS011;47857;52.270;6.804;2023-10-31T09:33:00;5.38;;;3.13;;
61903;SDS011;47857;52.270;6.804;2023-10-31T09:35:25;6.95;;;3.00;;
61903;SDS011;47857;52.270;6.804;2023-10-31T09:37:51;5.95;;;3.05;;
61903;SDS011;47857;52.270;6.804;2023-10-31T09:40:17;5.60;;;3.17;;
61903;SDS011;47857;52.270;6.804;2023-10-31T09:42:45;8.40;;;3.38;;
61903;SDS011;47857;52.270;6.804;2023-10-31T09:45:11;15.55;;;8.35;;
61903;SDS011;47857;52.270;6.804;2023-10-31T09:47:38;7.32;;;3.17;;
61903;SDS011;47857;52.270;6.804;2023-10-31T09:50:03;6.22;;;2.60;;
61903;SDS011;47857;52.270;6.804;2023-10-31T09:52:29;5.70;;;2.97;;
61903;SDS011;47857;52.270;6.804;2023-10-31T09:54:55;8.88;;;3.47;;
61903;SDS011;47857;52.270;6.804;2023-10-31T09:57:21;10.35;;;3.40;;
61903;SDS011;47857;52.270;6.804;2023-10-31T09:59:47;5.93;;;3.45;;
61903;SDS011;47857;52.270;6.804;2023-10-31T10:02:12;5.65;;;3.00;;
61903;SDS011;47857;52.270;6.804;2023-10-31T10:04:38;6.90;;;3.30;;
61903;SDS011;47857;52.270;6.804;2023-10-31T10:07:03;5.90;;;3.30;;
61903;SDS011;47857;52.270;6.804;2023-10-31T10:09:30;7.68;;;3.75;;
61903;SDS011;47857;52.270;6.804;2023-10-31T10:11:58;7.63;;;3.53;;
61903;SDS011;47857;52.270;6.804;2023-10-31T10:14:24;7.07;;;3.60;;
61903;SDS011;47857;52.270;6.804;2023-10-31T10:16:51;7.35;;;3.70;;
61903;SDS011;47857;52.270;6.804;2023-10-31T10:21:57;5.55;;;3.67;;
61903;SDS011;47857;52.270;6.804;2023-10-31T10:24:24;5.07;;;3.55;;
61903;SDS011;47857;52.270;6.804;2023-10-31T10:26:50;6.88;;;3.75;;
61903;SDS011;47857;52.270;6.804;2023-10-31T10:29:16;8.13;;;3.55;;
61903;SDS011;47857;52.270;6.804;2023-10-31T10:31:42;5.97;;;4.00;;
61903;SDS011;47857;52.270;6.804;2023-10-31T10:34:08;7.13;;;3.30;;
61903;SDS011;47857;52.270;6.804;2023-10-31T10:36:34;9.02;;;3.58;;
61903;SDS011;47857;52.270;6.804;2023-10-31T10:39:00;7.03;;;3.33;;
61903;SDS011;47857;52.270;6.804;2023-10-31T10:41:26;8.60;;;3.35;;
61903;SDS011;47857;52.270;6.804;2023-10-31T10:43:55;5.47;;;3.10;;
61903;SDS011;47857;52.270;6.804;2023-10-31T10:46:31;5.32;;;3.17;;
61903;SDS011;47857;52.270;6.804;2023-10-31T10:48:58;5.30;;;2.83;;
61903;SDS011;47857;52.270;6.804;2023-10-31T10:51:29;9.15;;;2.90;;
61903;SDS011;47857;52.270;6.804;2023-10-31T10:54:19;6.78;;;2.63;;
61903;SDS011;47857;52.270;6.804;2023-10-31T10:56:59;6.05;;;2.55;;
61903;SDS011;47857;52.270;6.804;2023-10-31T10:59:30;5.60;;;2.10;;
61903;SDS011;47857;52.270;6.804;2023-10-31T11:02:04;5.93;;;2.10;;
61903;SDS011;47857;52.270;6.804;2023-10-31T11:04:31;6.30;;;1.88;;
61903;SDS011;47857;52.270;6.804;2023-10-31T11:06:57;3.38;;;1.73;;
61903;SDS011;47857;52.270;6.804;2023-10-31T11:09:23;4.65;;;1.90;;
61903;SDS011;47857;52.270;6.804;2023-10-31T11:11:50;6.57;;;1.40;;
61903;SDS011;47857;52.270;6.804;2023-10-31T11:14:16;6.13;;;2.00;;
61903;SDS011;47857;52.270;6.804;2023-10-31T11:16:48;8.85;;;1.60;;
61903;SDS011;47857;52.270;6.804;2023-10-31T11:19:16;4.28;;;1.60;;
61903;SDS011;47857;52.270;6.804;2023-10-31T11:22:02;4.32;;;1.20;;
61903;SDS011;47857;52.270;6.804;2023-10-31T11:24:28;2.50;;;1.08;;
61903;SDS011;47857;52.270;6.804;2023-10-31T11:26:58;4.45;;;1.30;;
61903;SDS011;47857;52.270;6.804;2023-10-31T11:29:24;6.70;;;1.30;;
61903;SDS011;47857;52.270;6.804;2023-10-31T11:31:51;4.90;;;1.00;;
61903;SDS011;47857;52.270;6.804;2023-10-31T11:34:16;2.30;;;1.10;;
61903;SDS011;47857;52.270;6.804;2023-10-31T11:36:44;6.40;;;1.17;;
61903;SDS011;47857;52.270;6.804;2023-10-31T11:39:15;4.70;;;1.30;;
61903;SDS011;47857;52.270;6.804;2023-10-31T11:41:49;3.97;;;1.25;;
61903;SDS011;47857;52.270;6.804;2023-10-31T11:44:16;4.07;;;1.20;;
61903;SDS011;47857;52.270;6.804;2023-10-31T11:46:42;5.65;;;1.20;;
61903;SDS011;47857;52.270;6.804;2023-10-31T11:49:08;4.32;;;1.20;;
61903;SDS011;47857;52.270;6.804;2023-10-31T11:51:34;6.20;;;1.30;;
61903;SDS011;47857;52.270;6.804;2023-10-31T11:54:01;4.38;;;1.27;;
61903;SDS011;47857;52.270;6.804;2023-10-31T11:56:27;3.70;;;1.33;;
61903;SDS011;47857;52.270;6.804;2023-10-31T11:59:02;5.22;;;1.35;;
61903;SDS011;47857;52.270;6.804;2023-10-31T12:01:28;4.68;;;1.25;;
61903;SDS011;47857;52.270;6.804;2023-10-31T12:03:54;4.80;;;1.42;;
61903;SDS011;47857;52.270;6.804;2023-10-31T12:06:19;3.88;;;1.10;;
61903;SDS011;47857;52.270;6.804;2023-10-31T12:08:46;6.75;;;1.20;;
61903;SDS011;47857;52.270;6.804;2023-10-31T12:11:17;5.78;;;1.80;;
61903;SDS011;47857;52.270;6.804;2023-10-31T12:16:22;10.40;;;3.65;;
61903;SDS011;47857;52.270;6.804;2023-10-31T12:18:55;7.78;;;2.33;;
61903;SDS011;47857;52.270;6.804;2023-10-31T12:24:12;4.25;;;1.77;;
61903;SDS011;47857;52.270;6.804;2023-10-31T12:26:38;5.38;;;1.42;;
61903;SDS011;47857;52.270;6.804;2023-10-31T12:29:11;5.68;;;1.27;;
61903;SDS011;47857;52.270;6.804;2023-10-31T12:31:44;4.30;;;1.30;;
61903;SDS011;47857;52.270;6.804;2023-10-31T12:34:23;3.55;;;1.35;;
61903;SDS011;47857;52.270;6.804;2023-10-31T12:36:50;6.40;;;1.65;;
61903;SDS011;47857;52.270;6.804;2023-10-31T12:39:17;6.32;;;2.05;;
61903;SDS011;47857;52.270;6.804;2023-10-31T12:41:45;4.15;;;1.20;;
61903;SDS011;47857;52.270;6.804;2023-10-31T12:44:10;4.72;;;1.10;;
61903;SDS011;47857;52.270;6.804;2023-10-31T12:46:39;5.35;;;1.10;;
61903;SDS011;47857;52.270;6.804;2023-10-31T12:49:12;5.45;;;1.00;;
61903;SDS011;47857;52.270;6.804;2023-10-31T12:51:59;5.57;;;0.90;;
61903;SDS011;47857;52.270;6.804;2023-10-31T12:57:00;4.53;;;0.90;;
61903;SDS011;47857;52.270;6.804;2023-10-31T12:59:26;2.95;;;0.60;;
61903;SDS011;47857;52.270;6.804;2023-10-31T13:01:52;6.35;;;0.80;;
61903;SDS011;47857;52.270;6.804;2023-10-31T13:04:24;2.80;;;0.70;;
61903;SDS011;47857;52.270;6.804;2023-10-31T13:07:10;3.95;;;0.80;;
61903;SDS011;47857;52.270;6.804;2023-10-31T13:09:36;2.60;;;0.60;;
61903;SDS011;47857;52.270;6.804;2023-10-31T13:12:04;6.18;;;0.90;;
61903;SDS011;47857;52.270;6.804;2023-10-31T13:14:31;3.33;;;1.00;;
61903;SDS011;47857;52.270;6.804;2023-10-31T13:16:56;5.75;;;0.93;;
61903;SDS011;47857;52.270;6.804;2023-10-31T13:19:22;3.40;;;0.73;;
61903;SDS011;47857;52.270;6.804;2023-10-31T13:21:48;5.47;;;1.00;;
61903;SDS011;47857;52.270;6.804;2023-10-31T13:24:13;4.57;;;0.90;;
61903;SDS011;47857;52.270;6.804;2023-10-31T13:26:39;4.20;;;0.85;;
61903;SDS011;47857;52.270;6.804;2023-10-31T13:29:04;4.65;;;1.10;;
61903;SDS011;47857;52.270;6.804;2023-10-31T13:31:30;6.22;;;1.33;;
61903;SDS011;47857;52.270;6.804;2023-10-31T13:33:56;6.15;;;1.75;;
61903;SDS011;47857;52.270;6.804;2023-10-31T13:36:21;7.32;;;1.65;;
61903;SDS011;47857;52.270;6.804;2023-10-31T13:38:47;3.15;;;1.10;;
61903;SDS011;47857;52.270;6.804;2023-10-31T13:41:14;5.20;;;1.08;;
61903;SDS011;47857;52.270;6.804;2023-10-31T13:43:39;5.32;;;1.08;;
61903;SDS011;47857;52.270;6.804;2023-10-31T13:46:05;12.35;;;3.65;;
61903;SDS011;47857;52.270;6.804;2023-10-31T13:48:31;5.32;;;1.88;;
61903;SDS011;47857;52.270;6.804;2023-10-31T13:50:57;5.75;;;1.60;;
61903;SDS011;47857;52.270;6.804;2023-10-31T13:53:22;5.03;;;1.30;;
61903;SDS011;47857;52.270;6.804;2023-10-31T13:55:48;10.40;;;1.60;;
61903;SDS011;47857;52.270;6.804;2023-10-31T13:58:14;4.93;;;1.50;;
61903;SDS011;47857;52.270;6.804;2023-10-31T14:00:39;9.68;;;2.00;;
61903;SDS011;47857;52.270;6.804;2023-10-31T14:03:05;5.18;;;1.50;;
61903;SDS011;47857;52.270;6.804;2023-10-31T14:05:30;5.47;;;1.77;;
61903;SDS011;47857;52.270;6.804;2023-10-31T14:07:56;4.68;;;1.60;;
61903;SDS011;47857;52.270;6.804;2023-10-31T14:10:21;5.82;;;1.50;;
61903;SDS011;47857;52.270;6.804;2023-10-31T14:12:48;3.08;;;1.40;;
61903;SDS011;47857;52.270;6.804;2023-10-31T14:15:14;4.57;;;1.25;;
61903;SDS011;47857;52.270;6.804;2023-10-31T14:17:39;3.88;;;1.33;;
61903;SDS011;47857;52.270;6.804;2023-10-31T14:20:05;3.42;;;1.20;;
61903;SDS011;47857;52.270;6.804;2023-10-31T14:22:30;4.85;;;1.13;;
61903;SDS011;47857;52.270;6.804;2023-10-31T14:24:56;2.05;;;1.17;;
61903;SDS011;47857;52.270;6.804;2023-10-31T14:27:21;3.58;;;1.10;;
61903;SDS011;47857;52.270;6.804;2023-10-31T14:29:47;1.83;;;0.98;;
61903;SDS011;47857;52.270;6.804;2023-10-31T14:32:12;4.03;;;1.27;;
61903;SDS011;47857;52.270;6.804;2023-10-31T14:34:38;5.07;;;2.00;;
61903;SDS011;47857;52.270;6.804;2023-10-31T14:37:03;4.95;;;2.05;;
61903;SDS011;47857;52.270;6.804;2023-10-31T14:39:31;3.00;;;1.30;;
61903;SDS011;47857;52.270;6.804;2023-10-31T14:41:57;6.25;;;1.70;;
61903;SDS011;47857;52.270;6.804;2023-10-31T14:44:23;2.38;;;1.05;;
61903;SDS011;47857;52.270;6.804;2023-10-31T14:46:48;4.57;;;1.30;;
61903;SDS011;47857;52.270;6.804;2023-10-31T14:49:14;5.10;;;1.30;;